Time;durP1;ratioP1;P1;durP2;ratioP2;P2;SDS_P1;SDS_P2;PMS_P1;PMS_P2;Temp;Humidity;BMP_temperature;BMP_pressure;BME280_temperature;BME280_humidity;BME280_pressure;Samples;Min_cycle;Max_cycle;Signal;HPM_P1;HPM_P2
2022/03/12 00:00:47;;;;;;;5.35;2.67;;;-1.50;56.80;;;;;;5010909;28;20034;-55
2022/03/12 00:03:14;;;;;;;6.07;3.17;;;-1.40;56.80;;;;;;5008400;28;20064;-55
2022/03/12 00:05:49;;;;;;;4.78;3.47;;;-1.40;56.50;;;;;;5025951;28;20933;-52
2022/03/12 00:08:15;;;;;;;5.72;3.80;;;-1.40;56.10;;;;;;5008571;28;20049;-55
2022/03/12 00:10:43;;;;;;;4.20;3.20;;;-1.30;55.80;;;;;;5010306;28;20077;-55
2022/03/12 00:13:09;;;;;;;5.80;2.95;;;-1.40;55.60;;;;;;5009514;28;20651;-55
2022/03/12 00:15:37;;;;;;;6.55;3.10;;;-1.40;55.60;;;;;;5009893;28;20034;-52
2022/03/12 00:18:03;;;;;;;4.75;3.42;;;-1.40;55.70;;;;;;5010437;28;20037;-53
2022/03/12 00:20:29;;;;;;;6.00;3.40;;;-1.50;55.70;;;;;;5009679;28;20108;-53
2022/03/12 00:22:56;;;;;;;6.57;4.28;;;-1.50;55.90;;;;;;5010358;28;20114;-53
2022/03/12 00:25:24;;;;;;;16.85;7.72;;;-1.40;55.90;;;;;;5009254;28;20037;-54
2022/03/12 00:27:50;;;;;;;11.07;4.93;;;-1.40;55.90;;;;;;5010044;28;20048;-54
2022/03/12 00:30:19;;;;;;;4.82;3.17;;;-1.40;55.90;;;;;;5009935;28;20650;-52
2022/03/12 00:32:45;;;;;;;9.57;3.58;;;-1.40;55.60;;;;;;5010074;28;20045;-54
2022/03/12 00:35:13;;;;;;;7.13;3.85;;;-1.40;55.60;;;;;;5008411;28;20037;-54
2022/03/12 00:37:39;;;;;;;5.65;2.92;;;-1.30;55.50;;;;;;5008806;28;20501;-55
2022/03/12 00:40:05;;;;;;;7.65;2.90;;;-1.30;55.60;;;;;;5009561;28;20052;-54
2022/03/12 00:42:31;;;;;;;7.57;3.63;;;-1.20;55.40;;;;;;5009403;28;20030;-53
2022/03/12 00:44:57;;;;;;;4.35;3.22;;;-1.20;55.10;;;;;;5009313;28;20036;-55
2022/03/12 00:47:23;;;;;;;5.07;3.33;;;-1.10;54.90;;;;;;5009209;28;20468;-55
2022/03/12 00:49:50;;;;;;;6.35;3.25;;;-1.10;55.00;;;;;;5009570;28;20033;-53
2022/03/12 00:52:16;;;;;;;12.90;5.93;;;-1.10;55.40;;;;;;5007140;28;20030;-53
2022/03/12 00:54:43;;;;;;;5.57;3.08;;;-1.10;55.30;;;;;;5011753;28;20038;-53
2022/03/12 00:57:11;;;;;;;7.28;3.70;;;-1.20;56.00;;;;;;5009586;28;20026;-54
2022/03/12 00:59:38;;;;;;;5.45;3.35;;;-1.30;56.40;;;;;;5009005;28;20038;-52
2022/03/12 01:02:04;;;;;;;4.25;3.17;;;-1.40;56.90;;;;;;5009228;28;20401;-55
2022/03/12 01:04:30;;;;;;;6.10;3.45;;;-1.50;57.20;;;;;;5008981;28;20053;-55
2022/03/12 01:06:55;;;;;;;4.90;3.30;;;-1.60;57.50;;;;;;5009715;28;20034;-54
2022/03/12 01:09:21;;;;;;;5.63;3.97;;;-1.70;57.30;;;;;;5008002;28;20112;-55
2022/03/12 01:11:47;;;;;;;4.60;3.40;;;-1.70;57.40;;;;;;5009036;28;20022;-54
2022/03/12 01:14:12;;;;;;;20.85;8.88;;;-1.70;57.40;;;;;;5009730;28;20028;-53
2022/03/12 01:16:38;;;;;;;5.28;3.42;;;-1.80;57.60;;;;;;5008769;28;20392;-55
2022/03/12 01:19:04;;;;;;;14.52;5.78;;;-1.80;57.70;;;;;;5008986;28;20057;-55
2022/03/12 01:21:29;;;;;;;4.78;2.78;;;-1.90;59.00;;;;;;5010031;28;20041;-55
2022/03/12 01:23:55;;;;;;;4.82;3.13;;;-2.00;61.30;;;;;;5008981;28;20465;-52
2022/03/12 01:26:22;;;;;;;5.07;3.28;;;-2.30;61.60;;;;;;5009633;28;20084;-54
2022/03/12 01:28:48;;;;;;;6.35;3.38;;;-2.50;62.30;;;;;;5008596;28;20572;-53
2022/03/12 01:31:15;;;;;;;5.38;3.35;;;-2.70;63.30;;;;;;5008567;28;20041;-52
2022/03/12 01:33:41;;;;;;;5.97;3.97;;;-2.90;63.20;;;;;;5008741;28;20116;-54
2022/03/12 01:36:07;;;;;;;4.65;3.00;;;-3.00;63.20;;;;;;5008432;28;20118;-54
2022/03/12 01:38:48;;;;;;;5.38;3.55;;;-3.20;63.10;;;;;;5008930;28;20105;-55
2022/03/12 01:41:15;;;;;;;23.48;19.65;;;-3.20;62.60;;;;;;5008185;28;20100;-55
2022/03/12 01:43:43;;;;;;;12.63;9.68;;;-3.10;62.40;;;;;;5008689;28;20176;-54
2022/03/12 01:46:10;;;;;;;9.30;8.35;;;-3.10;62.10;;;;;;5008768;28;20489;-54
2022/03/12 01:48:41;;;;;;;7.65;6.78;;;-3.00;62.40;;;;;;5008907;28;20037;-53
2022/03/12 01:51:07;;;;;;;10.43;6.78;;;-3.00;61.50;;;;;;5008457;28;20050;-54
2022/03/12 01:53:32;;;;;;;11.93;6.53;;;-2.90;63.20;;;;;;5009151;28;20956;-52
2022/03/12 01:55:58;;;;;;;22.90;13.07;;;-2.90;63.20;;;;;;5009017;28;20370;-54
2022/03/12 01:58:24;;;;;;;110.20;53.38;;;-3.00;63.30;;;;;;5009706;28;20026;-54
2022/03/12 02:00:53;;;;;;;8.38;6.53;;;-3.00;63.30;;;;;;5007792;28;20489;-54
2022/03/12 02:03:28;;;;;;;22.05;13.57;;;-3.00;63.50;;;;;;5011120;28;20033;-52
2022/03/12 02:05:58;;;;;;;13.32;10.15;;;-2.90;63.10;;;;;;5008248;28;20030;-53
2022/03/12 02:08:24;;;;;;;15.57;10.63;;;-2.90;63.90;;;;;;5008867;28;20037;-54
2022/03/12 02:10:50;;;;;;;11.98;5.82;;;-2.90;64.60;;;;;;5008222;28;20079;-54
2022/03/12 02:13:17;;;;;;;6.03;3.97;;;-2.80;65.60;;;;;;5008652;28;20037;-54
2022/03/12 02:15:44;;;;;;;8.07;5.40;;;-2.90;67.20;;;;;;5008653;28;20022;-52
2022/03/12 02:18:13;;;;;;;5.45;3.63;;;-3.00;68.20;;;;;;5008038;28;20085;-54
2022/03/12 02:20:39;;;;;;;5.95;3.78;;;-3.10;68.20;;;;;;5010611;28;20073;-54
2022/03/12 02:23:08;;;;;;;4.75;3.22;;;-3.10;67.60;;;;;;5010741;28;20037;-54
2022/03/12 02:25:35;;;;;;;7.43;3.72;;;-3.00;66.00;;;;;;5011905;28;20576;-55
2022/03/12 02:28:09;;;;;;;6.22;3.42;;;-3.10;68.10;;;;;;5010902;28;20041;-53
2022/03/12 02:30:47;;;;;;;7.43;3.83;;;-3.30;69.70;;;;;;5012777;28;20032;-55
2022/03/12 02:33:13;;;;;;;5.40;3.67;;;-3.40;70.60;;;;;;5011684;28;20116;-55
2022/03/12 02:35:39;;;;;;;6.65;3.25;;;-3.60;70.20;;;;;;5012054;28;20028;-54
2022/03/12 02:38:08;;;;;;;5.90;3.97;;;-3.80;70.40;;;;;;5012157;28;20026;-53
2022/03/12 02:40:34;;;;;;;10.82;4.35;;;-4.00;70.90;;;;;;5011507;28;20563;-53
2022/03/12 02:43:01;;;;;;;6.70;4.38;;;-4.20;71.40;;;;;;5011874;28;20117;-53
2022/03/12 02:45:28;;;;;;;8.13;4.32;;;-4.30;72.70;;;;;;5011310;28;20026;-53
2022/03/12 02:47:55;;;;;;;6.63;4.53;;;-4.40;73.70;;;;;;5011626;28;20029;-53
2022/03/12 02:50:21;;;;;;;4.80;3.75;;;-4.50;74.20;;;;;;5012128;28;20025;-53
2022/03/12 02:52:47;;;;;;;7.10;4.28;;;-4.50;74.00;;;;;;5012213;28;20037;-53
2022/03/12 02:55:22;;;;;;;8.57;3.85;;;-4.50;73.80;;;;;;5011153;28;20659;-53
2022/03/12 02:57:49;;;;;;;6.90;4.10;;;-4.60;74.30;;;;;;5011781;28;20022;-54
2022/03/12 03:00:17;;;;;;;6.25;4.43;;;-4.60;74.00;;;;;;5011196;28;20116;-52
2022/03/12 03:02:51;;;;;;;4.85;3.63;;;-4.60;73.90;;;;;;5011140;28;20370;-55
2022/03/12 03:05:18;;;;;;;5.65;4.00;;;-4.50;73.60;;;;;;5012138;28;20452;-52
2022/03/12 03:07:45;;;;;;;26.88;18.95;;;-4.40;74.10;;;;;;5010587;28;20511;-54
2022/03/12 03:10:29;;;;;;;11.18;7.90;;;-4.30;74.00;;;;;;5011470;28;20034;-55
2022/03/12 03:12:56;;;;;;;7.28;5.00;;;-4.20;73.20;;;;;;5010343;28;20033;-54
2022/03/12 03:15:22;;;;;;;9.10;5.43;;;-4.30;73.40;;;;;;5012233;28;20026;-53
2022/03/12 03:17:48;;;;;;;13.48;7.55;;;-4.30;76.10;;;;;;5010072;28;20933;-53
2022/03/12 03:20:14;;;;;;;9.93;6.20;;;-4.40;75.50;;;;;;5012069;28;20010;-54
2022/03/12 03:22:40;;;;;;;9.05;6.60;;;-4.50;76.40;;;;;;5011237;28;20030;-53
2022/03/12 03:25:06;;;;;;;15.18;12.98;;;-4.50;77.50;;;;;;5010545;28;21009;-53
2022/03/12 03:27:31;;;;;;;26.02;22.00;;;-4.60;77.50;;;;;;5010713;28;20034;-54
2022/03/12 03:29:57;;;;;;;19.38;12.77;;;-4.60;77.70;;;;;;5010190;28;20109;-53
2022/03/12 03:32:23;;;;;;;18.27;12.40;;;-4.60;77.60;;;;;;5011040;28;20022;-54
2022/03/12 03:34:49;;;;;;;31.73;16.45;;;-4.50;77.40;;;;;;5008826;28;20050;-54
2022/03/12 03:37:15;;;;;;;12.50;7.88;;;-4.50;76.70;;;;;;5010997;28;20076;-55
2022/03/12 03:39:41;;;;;;;8.63;5.32;;;-4.40;77.10;;;;;;5010209;28;20032;-54
2022/03/12 03:42:07;;;;;;;6.95;4.45;;;-4.40;77.70;;;;;;5010604;28;20124;-54
2022/03/12 03:44:32;;;;;;;6.65;4.35;;;-4.40;77.40;;;;;;5009656;28;20526;-52
2022/03/12 03:46:58;;;;;;;6.95;4.60;;;-4.40;77.60;;;;;;5010882;28;20030;-54
2022/03/12 03:49:24;;;;;;;5.38;4.50;;;-4.40;77.80;;;;;;5010759;28;20366;-54
2022/03/12 03:51:51;;;;;;;7.45;4.75;;;-4.50;78.50;;;;;;5009652;28;20101;-53
2022/03/12 03:54:17;;;;;;;9.30;3.92;;;-4.50;79.00;;;;;;4992651;28;20029;-54
2022/03/12 03:56:43;;;;;;;10.40;4.60;;;-4.60;78.60;;;;;;5010775;28;20018;-55
2022/03/12 03:59:09;;;;;;;6.30;3.63;;;-4.70;79.50;;;;;;5010776;28;20030;-55
2022/03/12 04:01:40;;;;;;;6.05;3.90;;;-4.80;78.60;;;;;;5010116;28;20030;-54
2022/03/12 04:04:07;;;;;;;5.93;3.63;;;-4.90;78.30;;;;;;5011719;28;20057;-55
2022/03/12 04:06:32;;;;;;;5.65;3.67;;;-5.10;79.20;;;;;;5026186;28;20022;-55
2022/03/12 04:08:58;;;;;;;6.10;3.97;;;-5.20;78.50;;;;;;5009741;28;20092;-53
2022/03/12 04:11:25;;;;;;;9.25;4.10;;;-5.30;78.70;;;;;;5011368;28;20026;-53
2022/03/12 04:13:52;;;;;;;5.00;3.53;;;-5.30;79.60;;;;;;5024539;28;20030;-53
2022/03/12 04:16:19;;;;;;;6.43;4.00;;;-5.40;80.20;;;;;;5010293;28;20030;-52
2022/03/12 04:18:46;;;;;;;9.52;4.65;;;-5.40;78.70;;;;;;5009617;28;20064;-53
2022/03/12 04:21:14;;;;;;;8.25;4.78;;;-5.30;78.20;;;;;;5009773;28;20513;-52
2022/03/12 04:23:45;;;;;;;7.82;5.05;;;-5.30;78.30;;;;;;5009531;28;20199;-53
2022/03/12 04:26:11;;;;;;;10.60;4.75;;;-5.20;78.40;;;;;;5008880;28;20117;-54
2022/03/12 04:28:38;;;;;;;7.65;4.55;;;-5.10;79.00;;;;;;5009927;28;20472;-53
2022/03/12 04:31:05;;;;;;;10.00;4.75;;;-5.10;79.40;;;;;;5008393;28;20045;-54
2022/03/12 04:33:31;;;;;;;6.78;4.25;;;-5.10;78.90;;;;;;5009718;28;20096;-53
2022/03/12 04:35:58;;;;;;;6.50;4.60;;;-5.10;79.10;;;;;;5008246;28;20034;-53
2022/03/12 04:38:25;;;;;;;8.30;5.80;;;-5.00;79.60;;;;;;5008990;28;20058;-53
2022/03/12 04:40:55;;;;;;;7.35;4.40;;;-5.00;79.50;;;;;;5009001;28;20608;-54
2022/03/12 04:43:24;;;;;;;8.40;4.40;;;-5.00;79.00;;;;;;5009166;28;20488;-53
2022/03/12 04:45:49;;;;;;;6.45;4.28;;;-5.00;79.60;;;;;;5009873;28;20037;-54
2022/03/12 04:48:18;;;;;;;6.25;3.47;;;-5.10;79.90;;;;;;5007869;28;20022;-53
2022/03/12 04:50:43;;;;;;;7.82;4.68;;;-5.10;79.80;;;;;;5008709;28;20476;-53
2022/03/12 04:53:10;;;;;;;7.60;4.88;;;-5.20;80.00;;;;;;5009038;28;20050;-52
2022/03/12 04:55:36;;;;;;;16.00;11.27;;;-5.20;80.80;;;;;;5009513;28;20481;-54
2022/03/12 04:58:07;;;;;;;20.35;8.90;;;-5.20;83.70;;;;;;5024466;28;20089;-53
2022/03/12 05:00:38;;;;;;;13.25;7.90;;;-5.20;84.80;;;;;;5009767;28;20034;-54
2022/03/12 05:03:09;;;;;;;;;;;-5.20;83.70;;;;;;5009477;28;20436;-53
2022/03/12 05:05:39;;;;;;;;;;;-5.20;83.10;;;;;;5010019;28;19961;-53
2022/03/12 05:08:25;;;;;;;11.82;4.72;;;-5.10;82.50;;;;;;5009238;28;19909;-52
2022/03/12 05:10:54;;;;;;;9.43;4.75;;;-5.00;81.60;;;;;;5009066;28;20029;-52
2022/03/12 05:13:25;;;;;;;9.75;4.28;;;-4.90;81.40;;;;;;5009148;28;20034;-54
2022/03/12 05:15:52;;;;;;;11.77;6.22;;;-4.90;80.60;;;;;;5008403;28;20033;-53
2022/03/12 05:18:19;;;;;;;9.35;4.85;;;-4.90;79.70;;;;;;5009231;28;20397;-54
2022/03/12 05:20:48;;;;;;;8.98;5.20;;;-4.90;80.10;;;;;;5008763;28;20050;-54
2022/03/12 05:23:16;;;;;;;10.32;6.18;;;-5.00;80.90;;;;;;5009545;28;20117;-54
2022/03/12 05:25:42;;;;;;;8.27;5.70;;;-5.10;82.40;;;;;;5009641;28;20072;-54
2022/03/12 05:28:16;;;;;;;9.52;6.78;;;-5.20;82.60;;;;;;5009592;28;20477;-54
2022/03/12 05:30:46;;;;;;;11.77;5.53;;;-5.20;83.40;;;;;;5024472;28;20102;-54
2022/03/12 05:33:19;;;;;;;7.45;5.05;;;-5.30;83.60;;;;;;5008044;28;20026;-54
2022/03/12 05:35:46;;;;;;;10.13;5.75;;;-5.30;85.30;;;;;;5008000;28;20022;-54
2022/03/12 05:38:13;;;;;;;8.52;5.75;;;-5.20;85.60;;;;;;5008315;28;20049;-55
2022/03/12 05:40:40;;;;;;;13.45;4.97;;;-5.20;86.60;;;;;;5009253;28;20445;-53
2022/03/12 05:43:13;;;;;;;8.60;6.20;;;-5.10;87.00;;;;;;5006541;28;20061;-53
2022/03/12 05:45:39;;;;;;;11.30;6.72;;;-5.00;87.00;;;;;;5009310;28;20101;-53
2022/03/12 05:48:09;;;;;;;15.73;7.43;;;-4.90;87.10;;;;;;5009156;28;20026;-54
2022/03/12 05:50:37;;;;;;;24.15;10.73;;;-4.80;87.10;;;;;;5008080;28;20029;-53
2022/03/12 05:53:02;;;;;;;17.13;9.38;;;-4.70;86.10;;;;;;5008546;28;20030;-53
2022/03/12 05:55:28;;;;;;;26.20;11.57;;;-4.70;85.80;;;;;;5009321;28;20033;-55
2022/03/12 05:57:54;;;;;;;19.73;9.75;;;-4.60;85.40;;;;;;5013214;28;20030;-52
2022/03/12 06:00:20;;;;;;;14.73;9.07;;;-4.50;85.50;;;;;;5013513;28;20063;-53
2022/03/12 06:02:52;;;;;;;76.43;24.02;;;-4.40;85.00;;;;;;5012550;28;20022;-55
2022/03/12 06:05:20;;;;;;;17.13;10.27;;;-4.20;84.40;;;;;;5012693;28;20105;-55
2022/03/12 06:07:46;;;;;;;16.23;10.02;;;-4.10;84.00;;;;;;5011293;28;20389;-53
2022/03/12 06:10:24;;;;;;;14.63;9.80;;;-4.00;83.60;;;;;;5012370;28;20481;-56
2022/03/12 06:12:53;;;;;;;15.02;8.05;;;-3.80;83.60;;;;;;5011824;28;20056;-55
2022/03/12 06:15:20;;;;;;;14.73;8.23;;;-3.30;85.90;;;;;;5012954;28;20026;-53
2022/03/12 06:17:47;;;;;;;17.42;10.43;;;-1.80;88.60;;;;;;5012061;28;20533;-57
2022/03/12 06:20:17;;;;;;;18.00;9.70;;;0.10;77.00;;;;;;5012842;28;20053;-55
2022/03/12 06:22:43;;;;;;;16.23;10.20;;;2.00;69.40;;;;;;5011745;28;20448;-56
2022/03/12 06:25:12;;;;;;;16.90;9.98;;;3.60;63.90;;;;;;5012419;28;20169;-56
2022/03/12 06:27:39;;;;;;;16.55;8.95;;;5.20;63.90;;;;;;5012264;28;21009;-55
2022/03/12 06:30:08;;;;;;;9.00;6.70;;;6.90;56.30;;;;;;5011805;28;20033;-56
2022/03/12 06:32:34;;;;;;;10.98;6.43;;;8.00;53.20;;;;;;5011264;28;20014;-55
2022/03/12 06:35:00;;;;;;;12.52;8.50;;;8.60;52.60;;;;;;5010745;28;20041;-56
2022/03/12 06:37:26;;;;;;;9.73;6.90;;;8.90;48.40;;;;;;5011013;28;20025;-55
2022/03/12 06:39:52;;;;;;;17.25;13.60;;;9.00;47.30;;;;;;5011329;28;20038;-55
2022/03/12 06:42:22;;;;;;;14.50;9.85;;;10.00;50.20;;;;;;5011841;28;20504;-55
2022/03/12 06:44:48;;;;;;;7.07;6.38;;;11.30;46.70;;;;;;5011144;28;20030;-57
2022/03/12 06:47:15;;;;;;;6.13;5.38;;;12.50;45.20;;;;;;5011955;28;20014;-55
2022/03/12 06:49:41;;;;;;;8.18;5.45;;;13.20;42.70;;;;;;5010936;28;20119;-55
2022/03/12 06:52:07;;;;;;;7.45;5.95;;;13.70;42.30;;;;;;5012634;28;20481;-56
2022/03/12 06:54:33;;;;;;;6.65;6.05;;;14.10;40.80;;;;;;5011679;28;20513;-57
2022/03/12 06:57:00;;;;;;;8.00;7.10;;;14.00;41.70;;;;;;5010705;28;20029;-56
2022/03/12 06:59:26;;;;;;;9.88;6.45;;;14.20;40.50;;;;;;5011710;28;20030;-55
2022/03/12 07:01:51;;;;;;;11.05;7.00;;;14.40;39.80;;;;;;5010485;28;21019;-56
2022/03/12 07:04:18;;;;;;;8.00;7.18;;;13.60;40.30;;;;;;5010960;28;20097;-56
2022/03/12 07:06:44;;;;;;;12.23;8.57;;;13.20;41.30;;;;;;5009865;28;20073;-56
2022/03/12 07:09:09;;;;;;;9.38;8.15;;;12.90;41.50;;;;;;5011512;28;20030;-55
2022/03/12 07:11:35;;;;;;;9.02;7.68;;;12.50;42.00;;;;;;4994736;28;20018;-56
2022/03/12 07:14:01;;;;;;;12.32;9.45;;;12.10;42.80;;;;;;5011572;28;20366;-55
2022/03/12 07:16:26;;;;;;;9.48;8.07;;;11.70;43.10;;;;;;5012002;28;20044;-53
2022/03/12 07:18:52;;;;;;;13.10;7.40;;;11.90;43.50;;;;;;5011654;28;20322;-56
2022/03/12 07:21:18;;;;;;;9.02;7.75;;;12.30;44.40;;;;;;5010929;28;20026;-56
2022/03/12 07:23:43;;;;;;;7.93;7.00;;;13.20;42.40;;;;;;5010438;28;20476;-55
2022/03/12 07:26:09;;;;;;;7.25;6.55;;;13.30;42.30;;;;;;5011461;28;20109;-55
2022/03/12 07:28:35;;;;;;;7.78;6.85;;;13.30;41.90;;;;;;5025816;28;20034;-57
2022/03/12 07:31:01;;;;;;;6.40;5.80;;;13.60;41.30;;;;;;5011285;28;20322;-58
2022/03/12 07:33:28;;;;;;;7.70;6.90;;;14.10;40.60;;;;;;5010640;28;20030;-57
2022/03/12 07:35:54;;;;;;;13.27;6.43;;;14.50;39.70;;;;;;5010060;28;20029;-57
2022/03/12 07:38:19;;;;;;;7.07;5.35;;;14.60;38.10;;;;;;5011075;28;20022;-55
2022/03/12 07:40:45;;;;;;;4.95;4.28;;;14.60;35.90;;;;;;5010570;28;20034;-58
2022/03/12 07:43:11;;;;;;;9.52;4.40;;;14.00;34.70;;;;;;5010605;28;20034;-56
2022/03/12 07:45:37;;;;;;;5.05;4.47;;;13.60;34.40;;;;;;5010081;28;20029;-57
2022/03/12 07:48:03;;;;;;;5.93;5.32;;;13.50;35.50;;;;;;5011741;28;20074;-57
2022/03/12 07:50:29;;;;;;;6.00;4.38;;;13.10;37.50;;;;;;5010388;28;20480;-56
2022/03/12 07:52:55;;;;;;;4.65;4.15;;;12.50;38.30;;;;;;5010283;28;20030;-56
2022/03/12 07:55:21;;;;;;;5.72;3.70;;;12.20;36.00;;;;;;5010575;28;20026;-55
2022/03/12 07:57:47;;;;;;;4.07;3.47;;;12.40;35.10;;;;;;5010023;28;20473;-56
2022/03/12 08:00:15;;;;;;;3.95;3.53;;;12.40;33.10;;;;;;5011474;28;20038;-55
2022/03/12 08:02:42;;;;;;;5.85;4.18;;;12.40;33.80;;;;;;5010591;28;20688;-55
2022/03/12 08:05:07;;;;;;;4.32;3.90;;;12.40;34.60;;;;;;5010366;28;20033;-55
2022/03/12 08:07:33;;;;;;;5.00;4.25;;;12.30;33.60;;;;;;5009561;28;20645;-57
2022/03/12 08:09:59;;;;;;;5.25;4.50;;;12.00;35.60;;;;;;5010412;28;20085;-57
2022/03/12 08:12:30;;;;;;;5.53;4.63;;;11.90;35.70;;;;;;5009803;28;20428;-55
2022/03/12 08:14:57;;;;;;;6.43;4.22;;;11.80;35.80;;;;;;5009305;28;20022;-56
2022/03/12 08:17:24;;;;;;;5.88;4.80;;;11.60;38.00;;;;;;5009918;28;20088;-57
2022/03/12 08:19:50;;;;;;;6.07;4.75;;;11.70;37.70;;;;;;5024793;28;20089;-57
2022/03/12 08:22:17;;;;;;;5.07;4.40;;;11.70;37.80;;;;;;4973475;28;20493;-57
2022/03/12 08:24:43;;;;;;;5.75;4.78;;;11.40;38.70;;;;;;4996484;28;20503;-56
2022/03/12 08:27:09;;;;;;;6.72;4.38;;;11.10;40.90;;;;;;5005439;28;20026;-56
2022/03/12 08:29:34;;;;;;;5.95;3.92;;;10.60;41.00;;;;;;4990918;28;20026;-56
2022/03/12 08:32:00;;;;;;;5.72;4.70;;;10.30;41.20;;;;;;5006328;28;20025;-56
2022/03/12 08:34:26;;;;;;;10.95;4.30;;;10.00;42.10;;;;;;5002242;28;20034;-56
2022/03/12 08:36:52;;;;;;;3.65;3.15;;;9.90;41.70;;;;;;5008724;28;20186;-57
2022/03/12 08:39:18;;;;;;;4.32;2.97;;;10.00;41.40;;;;;;5010771;28;20112;-56
2022/03/12 08:41:45;;;;;;;4.43;3.38;;;10.20;38.60;;;;;;5009225;28;20105;-56
2022/03/12 08:44:11;;;;;;;4.28;3.60;;;10.40;37.60;;;;;;5010446;28;20034;-56
2022/03/12 08:46:42;;;;;;;4.35;3.45;;;10.80;37.20;;;;;;5008945;28;20072;-54
2022/03/12 08:49:09;;;;;;;3.75;2.95;;;11.20;36.60;;;;;;5009765;28;20054;-57
2022/03/12 08:51:35;;;;;;;3.65;3.28;;;11.50;34.10;;;;;;4990453;28;20034;-55
2022/03/12 08:54:01;;;;;;;4.00;3.42;;;12.10;35.80;;;;;;5009026;28;20064;-55
2022/03/12 08:56:27;;;;;;;4.78;3.50;;;12.70;34.00;;;;;;5009954;28;20033;-56
2022/03/12 08:58:53;;;;;;;4.30;3.10;;;13.10;33.10;;;;;;5009342;28;20034;-55
2022/03/12 09:01:19;;;;;;;5.60;3.25;;;14.20;31.10;;;;;;5009175;28;20061;-56
2022/03/12 09:03:45;;;;;;;3.50;3.00;;;15.00;29.80;;;;;;4988513;28;20116;-56
2022/03/12 09:06:11;;;;;;;3.28;2.97;;;15.50;29.10;;;;;;5009935;28;20029;-56
2022/03/12 09:08:37;;;;;;;3.10;2.80;;;16.30;28.80;;;;;;5009083;28;20041;-56
2022/03/12 09:11:03;;;;;;;4.18;3.15;;;17.10;28.50;;;;;;5009076;28;20060;-56
2022/03/12 09:13:29;;;;;;;3.30;3.00;;;17.70;27.60;;;;;;4988907;28;20033;-57
2022/03/12 09:15:56;;;;;;;5.90;2.83;;;18.40;26.90;;;;;;5008147;28;20030;-57
2022/03/12 09:18:21;;;;;;;4.13;3.08;;;18.40;27.20;;;;;;5010288;28;20041;-56
2022/03/12 09:20:47;;;;;;;6.00;4.38;;;18.30;26.80;;;;;;5008473;28;20030;-56
2022/03/12 09:23:18;;;;;;;3.60;2.90;;;19.00;27.00;;;;;;5009135;28;20505;-56
2022/03/12 09:25:45;;;;;;;3.78;2.40;;;19.60;25.80;;;;;;5008076;28;20056;-55
2022/03/12 09:28:11;;;;;;;3.15;2.83;;;20.50;25.10;;;;;;5009535;28;20027;-55
2022/03/12 09:30:37;;;;;;;4.45;3.15;;;20.30;25.40;;;;;;5008176;28;20028;-55
2022/03/12 09:33:05;;;;;;;3.78;2.58;;;20.20;25.50;;;;;;5009239;28;20108;-57
2022/03/12 09:35:31;;;;;;;4.43;2.78;;;20.00;24.70;;;;;;5008917;28;20014;-56
2022/03/12 09:37:58;;;;;;;4.03;2.70;;;20.00;24.40;;;;;;5007976;28;20033;-56
2022/03/12 09:40:24;;;;;;;3.13;2.72;;;20.20;24.70;;;;;;5008137;28;20038;-57
2022/03/12 09:42:49;;;;;;;3.88;2.83;;;20.70;25.30;;;;;;5007713;28;20037;-56
2022/03/12 09:45:15;;;;;;;6.50;2.85;;;21.10;25.00;;;;;;5009267;28;20129;-56
2022/03/12 09:47:42;;;;;;;2.78;2.47;;;20.90;25.00;;;;;;5008332;28;20029;-55
2022/03/12 09:50:09;;;;;;;3.80;2.58;;;21.10;25.10;;;;;;4982810;28;20049;-57
2022/03/12 09:52:35;;;;;;;3.17;2.88;;;20.90;23.30;;;;;;5007946;28;20029;-56
2022/03/12 09:55:02;;;;;;;3.67;2.53;;;21.00;23.60;;;;;;5009187;28;20109;-57
2022/03/12 09:57:27;;;;;;;2.85;2.47;;;21.40;23.90;;;;;;5008916;28;20026;-56
2022/03/12 09:59:53;;;;;;;2.65;2.45;;;21.60;24.70;;;;;;5007684;28;20061;-56
2022/03/12 10:02:20;;;;;;;3.55;3.05;;;21.10;23.20;;;;;;5006821;28;20025;-56
2022/03/12 10:04:46;;;;;;;2.97;2.67;;;20.90;23.30;;;;;;5007848;28;20397;-57
2022/03/12 10:07:11;;;;;;;2.80;2.50;;;20.50;23.70;;;;;;5008725;28;20042;-57
2022/03/12 10:09:37;;;;;;;3.78;2.42;;;20.10;23.50;;;;;;5008405;28;20026;-57
2022/03/12 10:12:04;;;;;;;3.40;3.10;;;19.30;24.10;;;;;;5024025;28;20380;-56
2022/03/12 10:14:30;;;;;;;2.70;2.50;;;19.20;25.10;;;;;;5009705;28;20053;-56
2022/03/12 10:16:56;;;;;;;3.35;2.80;;;19.10;25.40;;;;;;5008501;28;20026;-56
2022/03/12 10:19:22;;;;;;;2.95;2.67;;;18.90;25.70;;;;;;5008545;28;20083;-56
2022/03/12 10:21:50;;;;;;;3.47;2.45;;;19.00;25.30;;;;;;4998173;28;20076;-55
2022/03/12 10:24:15;;;;;;;4.65;2.95;;;19.10;26.10;;;;;;5008696;28;20030;-57
2022/03/12 10:26:42;;;;;;;3.60;2.97;;;18.40;24.30;;;;;;5008908;28;20026;-57
2022/03/12 10:29:09;;;;;;;3.67;2.25;;;18.20;24.50;;;;;;5008977;28;20113;-58
2022/03/12 10:31:35;;;;;;;4.72;3.20;;;17.90;26.30;;;;;;5007221;28;20025;-56
2022/03/12 10:34:21;;;;;;;2.90;2.58;;;17.70;25.10;;;;;;5007712;28;20130;-57
2022/03/12 10:36:53;;;;;;;3.53;3.22;;;17.80;26.00;;;;;;4990145;28;20062;-56
2022/03/12 10:39:32;;;;;;;3.00;2.70;;;17.60;25.80;;;;;;5008245;28;20033;-56
2022/03/12 10:42:04;;;;;;;3.28;2.97;;;17.90;25.70;;;;;;5009823;28;20034;-56
2022/03/12 10:44:41;;;;;;;4.78;3.05;;;17.70;25.20;;;;;;5012504;28;20072;-57
2022/03/12 10:47:26;;;;;;;3.03;2.80;;;17.40;26.00;;;;;;5012239;28;20042;-56
2022/03/12 10:50:07;;;;;;;3.67;2.83;;;18.00;26.60;;;;;;5012334;28;20083;-56
2022/03/12 10:52:35;;;;;;;3.42;3.08;;;18.00;25.40;;;;;;4990502;28;20038;-55
2022/03/12 10:55:11;;;;;;;3.40;3.08;;;17.40;26.30;;;;;;5011564;28;20037;-56
2022/03/12 10:57:37;;;;;;;3.25;2.90;;;16.80;26.20;;;;;;5011729;28;20036;-56
2022/03/12 11:00:09;;;;;;;6.00;3.35;;;16.70;27.10;;;;;;5007617;28;20755;-56
2022/03/12 11:02:35;;;;;;;3.15;2.83;;;16.20;26.30;;;;;;4983305;28;20037;-57
2022/03/12 11:05:04;;;;;;;3.65;3.35;;;15.20;28.20;;;;;;5010608;28;20034;-56
2022/03/12 11:07:30;;;;;;;5.50;3.17;;;14.80;27.10;;;;;;5011355;28;20022;-55
2022/03/12 11:09:56;;;;;;;4.93;3.40;;;14.60;28.30;;;;;;5010035;28;20026;-55
2022/03/12 11:12:35;;;;;;;3.58;3.25;;;14.10;28.20;;;;;;5011243;28;20025;-56
2022/03/12 11:15:05;;;;;;;4.18;3.78;;;13.70;28.20;;;;;;5010591;28;20384;-56
2022/03/12 11:17:43;;;;;;;3.08;2.75;;;13.60;29.80;;;;;;5011877;28;20057;-57
2022/03/12 11:20:19;;;;;;;4.05;3.60;;;13.40;29.10;;;;;;5010423;28;20393;-55
2022/03/12 11:22:52;;;;;;;3.92;3.47;;;13.00;29.10;;;;;;5009549;28;20107;-56
2022/03/12 11:25:22;;;;;;;4.03;3.45;;;13.10;29.20;;;;;;5011061;28;20053;-56
2022/03/12 11:27:51;;;;;;;4.15;3.75;;;12.80;29.40;;;;;;5010482;28;20025;-56
2022/03/12 11:30:22;;;;;;;3.40;3.10;;;12.80;29.30;;;;;;5010250;28;20060;-56
2022/03/12 11:33:10;;;;;;;4.85;3.60;;;12.60;31.20;;;;;;5010093;28;20026;-56
2022/03/12 11:35:45;;;;;;;3.80;2.83;;;12.70;29.90;;;;;;5009060;28;20038;-55
2022/03/12 11:38:21;;;;;;;4.13;3.40;;;12.90;33.10;;;;;;5008828;28;20065;-55
2022/03/12 11:41:01;;;;;;;3.78;3.17;;;13.80;31.30;;;;;;4992820;28;20034;-55
2022/03/12 11:43:31;;;;;;;5.85;3.85;;;14.20;29.60;;;;;;4995924;28;20053;-56
2022/03/12 11:45:59;;;;;;;4.13;3.72;;;13.90;29.90;;;;;;5000485;28;20030;-57
2022/03/12 11:48:29;;;;;;;3.70;2.97;;;13.50;29.00;;;;;;4978257;28;20026;-55
2022/03/12 11:50:55;;;;;;;3.53;3.13;;;13.20;30.10;;;;;;5009982;28;20058;-55
2022/03/12 11:53:21;;;;;;;3.40;2.70;;;13.20;29.50;;;;;;5009935;28;20030;-57
2022/03/12 11:55:49;;;;;;;3.30;2.63;;;13.60;29.40;;;;;;5008841;28;20026;-56
2022/03/12 11:58:16;;;;;;;4.40;3.88;;;13.60;29.90;;;;;;5011525;28;20080;-56
2022/03/12 12:00:49;;;;;;;4.20;3.58;;;13.50;29.60;;;;;;5002389;28;20044;-54
2022/03/12 12:03:16;;;;;;;4.97;3.30;;;13.40;30.70;;;;;;4994704;28;20049;-55
2022/03/12 12:05:47;;;;;;;4.38;3.25;;;13.40;30.10;;;;;;5010859;28;20056;-56
2022/03/12 12:08:13;;;;;;;4.72;3.42;;;13.00;29.60;;;;;;5009661;28;20058;-56
2022/03/12 12:10:42;;;;;;;3.72;3.28;;;12.80;32.20;;;;;;4993704;28;20461;-55
2022/03/12 12:13:09;;;;;;;4.15;3.47;;;13.40;32.50;;;;;;5001985;28;20065;-56
2022/03/12 12:15:36;;;;;;;4.40;4.00;;;13.50;30.80;;;;;;5002569;28;20034;-55
2022/03/12 12:18:03;;;;;;;4.03;3.60;;;13.10;29.90;;;;;;4992973;28;25341;-56
2022/03/12 12:20:30;;;;;;;4.13;3.72;;;13.10;31.60;;;;;;5010570;28;20555;-56
2022/03/12 12:23:00;;;;;;;4.22;3.83;;;13.50;30.40;;;;;;4988310;28;20108;-56
2022/03/12 12:25:30;;;;;;;3.95;3.38;;;13.00;30.10;;;;;;4998978;28;20564;-56
2022/03/12 12:27:56;;;;;;;5.40;3.88;;;12.80;30.70;;;;;;5013377;28;20030;-56
2022/03/12 12:30:25;;;;;;;3.67;3.22;;;12.30;31.10;;;;;;5004351;28;20477;-56
2022/03/12 12:32:51;;;;;;;4.38;3.28;;;12.30;33.40;;;;;;5005694;28;20018;-55
2022/03/12 12:35:22;;;;;;;4.13;3.42;;;12.30;32.10;;;;;;5008820;28;20314;-55
2022/03/12 12:37:58;;;;;;;4.05;3.17;;;12.80;32.50;;;;;;5007199;28;20061;-56
2022/03/12 12:40:27;;;;;;;3.95;3.28;;;13.10;31.40;;;;;;4989971;28;20374;-55
2022/03/12 12:42:57;;;;;;;3.50;3.20;;;13.10;31.70;;;;;;4998922;28;20040;-56
2022/03/12 12:45:26;;;;;;;4.35;3.65;;;13.70;31.90;;;;;;5005493;28;20084;-56
2022/03/12 12:48:10;;;;;;;4.13;3.72;;;13.70;30.90;;;;;;5018647;28;20543;-55